Time;durP1;ratioP1;P1;durP2;ratioP2;P2;SDS_P1;SDS_P2;PMS_P1;PMS_P2;Temp;Humidity;BMP_temperature;BMP_pressure;BME280_temperature;BME280_humidity;BME280_pressure;Samples;Min_cycle;Max_cycle;Signal;HPM_P1;HPM_P2
2021/12/02 00:00:23;;;;;;;0.70;0.70;;;;;;;9.72;83.31;96823.78;5043870;28;20088;-58
2021/12/02 00:02:49;;;;;;;0.50;0.50;;;;;;;9.76;83.87;96854.25;5048248;28;20053;-58
2021/12/02 00:05:14;;;;;;;0.40;0.40;;;;;;;9.68;84.43;96851.19;5047538;28;20045;-59
2021/12/02 00:07:39;;;;;;;0.60;0.60;;;;;;;9.70;83.99;96861.38;5044800;28;20029;-60
2021/12/02 00:10:05;;;;;;;0.60;0.60;;;;;;;9.72;82.98;96852.72;5045521;28;20041;-57
2021/12/02 00:12:31;;;;;;;0.50;0.50;;;;;;;9.75;84.00;96860.28;5048607;28;20078;-57
2021/12/02 00:14:59;;;;;;;0.97;0.83;;;;;;;9.74;84.19;96866.31;5047535;28;20592;-60
2021/12/02 00:17:28;;;;;;;0.50;0.50;;;;;;;9.71;84.98;96870.72;5044333;28;20076;-60
2021/12/02 00:23:06;;;;;;;0.80;0.80;;;;;;;9.75;83.60;96878.22;5049988;28;20110;-59
2021/12/02 00:25:31;;;;;;;0.50;0.50;;;;;;;9.68;84.39;96881.91;5046299;28;20048;-60
2021/12/02 00:27:58;;;;;;;0.57;0.50;;;;;;;9.62;84.85;96882.19;5045539;28;20551;-59
2021/12/02 00:30:25;;;;;;;0.77;0.63;;;;;;;9.56;86.16;96887.56;5048477;28;20049;-60
2021/12/02 00:32:52;;;;;;;0.50;0.50;;;;;;;9.53;86.82;96892.81;5049572;28;20119;-60
2021/12/02 00:35:18;;;;;;;0.80;0.80;;;;;;;9.44;88.00;96888.91;5046407;28;20409;-60
2021/12/02 00:37:45;;;;;;;0.63;0.63;;;;;;;9.37;89.22;96896.91;5044033;28;20056;-58
2021/12/02 00:40:11;;;;;;;1.33;1.23;;;;;;;9.32;89.52;96893.72;5048180;28;20033;-59
2021/12/02 00:42:38;;;;;;;1.05;0.75;;;;;;;9.16;92.87;96896.09;5048428;28;20059;-59
2021/12/02 00:45:04;;;;;;;0.50;0.50;;;;;;;9.38;86.90;96901.94;5044744;28;20048;-57
2021/12/02 00:47:29;;;;;;;0.47;0.47;;;;;;;9.41;86.32;96909.53;5016686;28;20052;-56
2021/12/02 00:49:55;;;;;;;0.70;0.70;;;;;;;9.45;85.10;96900.81;5047866;28;20041;-59
2021/12/02 00:52:20;;;;;;;0.60;0.60;;;;;;;9.56;83.69;96908.03;5047464;28;20499;-58
2021/12/02 00:54:46;;;;;;;0.50;0.50;;;;;;;9.64;82.06;96901.69;5043697;28;20037;-59
2021/12/02 00:57:13;;;;;;;0.70;0.70;;;;;;;9.68;80.67;96893.88;5044041;28;20036;-59
2021/12/02 00:59:39;;;;;;;0.70;0.70;;;;;;;9.71;79.47;96906.56;5048197;28;20072;-59
2021/12/02 01:02:07;;;;;;;0.60;0.60;;;;;;;9.78;79.08;96900.25;5046013;28;20049;-59
2021/12/02 01:04:33;;;;;;;0.60;0.60;;;;;;;9.78;78.88;96898.53;5025374;28;20083;-59
2021/12/02 01:06:58;;;;;;;0.63;0.63;;;;;;;9.76;78.59;96910.56;5044773;28;20139;-58
2021/12/02 01:09:24;;;;;;;0.90;0.70;;;;;;;9.74;78.94;96917.47;5047857;28;20067;-57
2021/12/02 01:11:50;;;;;;;0.60;0.60;;;;;;;9.73;78.35;96917.53;5044546;28;20044;-60
2021/12/02 01:14:16;;;;;;;0.57;0.57;;;;;;;9.61;80.52;96922.28;5044331;28;20511;-59
2021/12/02 01:16:42;;;;;;;0.65;0.65;;;;;;;9.65;81.14;96935.78;5044982;28;20128;-59
2021/12/02 01:19:08;;;;;;;0.60;0.60;;;;;;;9.51;81.76;96935.53;5047007;28;20487;-61
2021/12/02 01:21:37;;;;;;;0.73;0.73;;;;;;;9.50;82.79;96924.50;5043487;28;20168;-59
2021/12/02 01:24:05;;;;;;;0.60;0.60;;;;;;;9.42;84.76;96931.63;5043825;28;20037;-60
2021/12/02 01:26:33;;;;;;;0.70;0.70;;;;;;;9.31;85.40;96931.25;5045369;28;20474;-60
2021/12/02 01:28:58;;;;;;;0.70;0.70;;;;;;;9.17;87.12;96936.91;5048105;28;20045;-60
2021/12/02 01:31:29;;;;;;;0.77;0.77;;;;;;;9.11;88.27;96928.69;5046752;28;20098;-60
2021/12/02 01:33:55;;;;;;;1.35;0.90;;;;;;;9.05;90.34;96939.13;5045527;28;20064;-60
2021/12/02 01:36:23;;;;;;;0.63;0.63;;;;;;;9.04;89.35;96945.13;5048505;28;20037;-61
2021/12/02 01:38:49;;;;;;;0.90;0.90;;;;;;;8.94;91.57;96949.81;5048055;28;20116;-60
2021/12/02 01:41:14;;;;;;;2.20;1.03;;;;;;;8.94;91.49;96949.81;5043186;28;20152;-61
2021/12/02 01:43:47;;;;;;;1.57;0.73;;;;;;;9.03;90.89;96951.16;5043466;28;20063;-61
2021/12/02 01:46:19;;;;;;;0.70;0.70;;;;;;;8.95;93.38;96951.47;5048324;28;20067;-61
2021/12/02 01:48:49;;;;;;;0.70;0.70;;;;;;;8.93;92.09;96953.25;5047412;28;20498;-58
2021/12/02 01:51:17;;;;;;;0.70;0.70;;;;;;;8.90;93.06;96944.88;5042453;28;20498;-59
2021/12/02 01:53:43;;;;;;;1.07;1.00;;;;;;;8.76;95.22;96944.56;5043282;28;20053;-58
2021/12/02 01:56:14;;;;;;;1.00;0.90;;;;;;;8.84;94.68;96947.66;5047336;28;20029;-58
2021/12/02 01:58:43;;;;;;;0.70;0.70;;;;;;;8.78;94.79;96947.91;5046172;28;20508;-60
2021/12/02 02:01:23;;;;;;;0.70;0.70;;;;;;;8.78;94.48;96938.53;5043478;28;20057;-58
2021/12/02 02:03:51;;;;;;;1.00;0.90;;;;;;;8.69;95.79;96943.97;5060114;28;20490;-60
2021/12/02 02:06:52;;;;;;;0.77;0.77;;;;;;;8.75;95.22;96930.13;5069026;28;20068;-61
2021/12/02 02:09:17;;;;;;;0.87;0.77;;;;;;;8.61;95.77;96930.69;5065090;28;20183;-59
2021/12/02 02:11:42;;;;;;;0.83;0.83;;;;;;;8.56;96.44;96923.19;5067742;28;20155;-60
2021/12/02 02:14:09;;;;;;;0.67;0.67;;;;;;;8.54;96.39;96924.97;5069483;28;20506;-58
2021/12/02 02:16:37;;;;;;;1.53;1.30;;;;;;;8.56;95.96;96914.69;5071573;28;20094;-57
2021/12/02 02:19:04;;;;;;;0.70;0.70;;;;;;;8.62;93.60;96914.44;5068515;28;20087;-60
2021/12/02 02:21:34;;;;;;;0.60;0.60;;;;;;;8.80;90.02;96921.38;5066971;28;20036;-60
2021/12/02 02:24:01;;;;;;;0.70;0.70;;;;;;;8.82;90.31;96917.06;5069748;28;20119;-58
2021/12/02 02:26:31;;;;;;;0.60;0.60;;;;;;;8.85;90.19;96916.94;5070734;28;20029;-60
2021/12/02 02:28:57;;;;;;;0.70;0.70;;;;;;;8.71;91.34;96916.63;5067421;28;20066;-59
2021/12/02 02:31:25;;;;;;;0.67;0.53;;;;;;;8.66;92.23;96924.47;5067278;28;20055;-59
2021/12/02 02:33:52;;;;;;;0.70;0.70;;;;;;;8.59;93.00;96917.97;5072768;28;20087;-58
2021/12/02 02:36:20;;;;;;;0.80;0.80;;;;;;;8.67;92.01;96920.22;5070531;28;20044;-60
2021/12/02 02:38:55;;;;;;;0.80;0.80;;;;;;;8.58;93.61;96920.56;5067912;28;20048;-60
2021/12/02 02:41:22;;;;;;;;;;;;;;;8.53;94.02;96914.81;5068753;28;20474;-60
2021/12/02 02:43:49;;;;;;;1.23;1.13;;;;;;;8.44;95.05;96910.06;5073171;28;20007;-59
2021/12/02 02:46:28;;;;;;;0.70;0.70;;;;;;;8.51;94.20;96922.53;5071679;28;20051;-60
2021/12/02 02:48:53;;;;;;;0.60;0.60;;;;;;;8.46;94.43;96921.03;5065679;28;20448;-59
2021/12/02 02:51:19;;;;;;;0.80;0.80;;;;;;;8.41;95.62;96925.47;5066840;28;20043;-59
2021/12/02 02:53:51;;;;;;;0.60;0.60;;;;;;;8.37;97.08;96927.31;5069347;28;20087;-59
2021/12/02 02:56:18;;;;;;;1.00;0.97;;;;;;;8.31;97.71;96911.41;5069862;28;20040;-58
2021/12/02 03:01:42;;;;;;;0.50;0.50;;;;;;;8.25;99.38;96907.31;5070718;28;20098;-60
2021/12/02 03:07:01;;;;;;;2.40;0.90;;;;;;;8.25;98.91;96912.44;5069096;28;20079;-60
2021/12/02 03:12:03;;;;;;;5.60;2.47;;;;;;;8.19;99.69;96913.47;5071908;28;20034;-59
2021/12/02 03:14:47;;;;;;;6.37;2.60;;;;;;;8.18;100.00;96916.94;5069649;28;20051;-60
2021/12/02 03:17:14;;;;;;;5.97;2.00;;;;;;;8.01;100.00;96924.38;5067476;28;20159;-61
2021/12/02 03:19:41;;;;;;;3.23;2.43;;;;;;;8.00;100.00;96917.59;5068540;28;20059;-59
2021/12/02 03:22:07;;;;;;;3.70;2.13;;;;;;;7.93;100.00;96921.28;5070312;28;20303;-58
2021/12/02 03:24:32;;;;;;;2.67;2.03;;;;;;;7.92;100.00;96917.06;5070432;28;20194;-60
2021/12/02 03:26:58;;;;;;;1.67;1.37;;;;;;;7.88;100.00;96925.72;5065904;28;20494;-61
2021/12/02 03:29:23;;;;;;;1.37;1.10;;;;;;;7.86;100.00;96924.91;5069713;28;20402;-60
2021/12/02 03:31:49;;;;;;;0.97;0.80;;;;;;;7.85;100.00;96930.91;5070218;28;20083;-59
2021/12/02 03:34:15;;;;;;;0.70;0.70;;;;;;;7.88;100.00;96935.91;5071991;28;20052;-60
2021/12/02 03:36:41;;;;;;;0.80;0.80;;;;;;;7.84;100.00;96936.06;5067976;28;20036;-60
2021/12/02 03:39:10;;;;;;;0.90;0.90;;;;;;;7.83;100.00;96937.78;5071701;28;20044;-61
2021/12/02 03:41:37;;;;;;;2.37;1.23;;;;;;;7.73;100.00;96941.53;5071280;28;20075;-60
2021/12/02 03:44:02;;;;;;;2.90;1.00;;;;;;;7.66;100.00;96943.47;5070866;28;20036;-60
2021/12/02 03:46:28;;;;;;;1.23;1.13;;;;;;;7.64;100.00;96946.94;5068292;28;20051;-59
2021/12/02 03:48:55;;;;;;;0.77;0.77;;;;;;;7.63;100.00;96948.69;5070615;28;20175;-60
2021/12/02 03:51:22;;;;;;;1.83;0.80;;;;;;;7.57;100.00;96946.34;5070464;28;20486;-57
2021/12/02 03:53:48;;;;;;;1.17;1.00;;;;;;;7.55;100.00;96954.94;5068202;28;20052;-59
2021/12/02 03:56:14;;;;;;;0.70;0.70;;;;;;;7.59;100.00;96951.41;5067660;28;20044;-59
2021/12/02 03:58:42;;;;;;;0.87;0.87;;;;;;;7.63;100.00;96951.25;5071106;28;20489;-58
2021/12/02 04:01:08;;;;;;;1.13;1.03;;;;;;;7.47;100.00;96951.81;5072165;28;20127;-58
2021/12/02 04:03:34;;;;;;;1.40;1.13;;;;;;;7.55;100.00;96954.94;5063160;28;20536;-59
2021/12/02 04:06:00;;;;;;;1.23;1.07;;;;;;;7.48;100.00;96961.09;5066010;28;20048;-58
2021/12/02 04:09:12;;;;;;;2.17;1.30;;;;;;;7.61;100.00;96968.31;5068632;28;20163;-59
2021/12/02 04:16:25;;;;;;;1.17;1.07;;;;;;;7.48;100.00;96958.56;5065448;28;20462;-59
2021/12/02 04:18:51;;;;;;;1.57;0.83;;;;;;;7.44;100.00;96960.38;5069646;28;20355;-59
2021/12/02 04:21:17;;;;;;;1.93;1.20;;;;;;;7.43;100.00;96952.78;5068553;28;20047;-60
2021/12/02 04:23:43;;;;;;;1.30;1.07;;;;;;;7.35;100.00;96963.22;5065889;28;20052;-59
2021/12/02 04:26:08;;;;;;;1.60;1.07;;;;;;;7.37;100.00;96968.28;5067284;28;20032;-59
2021/12/02 04:28:34;;;;;;;2.20;1.00;;;;;;;7.33;100.00;96957.38;5069081;28;20040;-58
2021/12/02 04:31:00;;;;;;;2.07;1.00;;;;;;;7.38;100.00;96955.50;5067801;28;20141;-58
2021/12/02 04:33:25;;;;;;;1.53;1.10;;;;;;;7.32;100.00;96968.44;5065475;28;20051;-60
2021/12/02 04:35:52;;;;;;;1.57;1.10;;;;;;;7.33;100.00;96958.22;5068141;28;20120;-60
2021/12/02 04:38:19;;;;;;;1.50;0.90;;;;;;;7.34;100.00;96966.69;5069055;28;20043;-59
2021/12/02 04:40:44;;;;;;;3.17;1.00;;;;;;;7.24;100.00;96965.31;5067340;28;20028;-57
2021/12/02 04:43:10;;;;;;;2.03;1.20;;;;;;;7.22;100.00;96965.34;5064651;28;20037;-60
2021/12/02 04:45:35;;;;;;;1.73;1.30;;;;;;;7.23;100.00;96968.75;5069538;28;20494;-59
2021/12/02 04:48:01;;;;;;;0.80;0.80;;;;;;;7.29;100.00;96964.28;5068765;28;20115;-58
2021/12/02 04:50:27;;;;;;;1.30;1.20;;;;;;;7.24;100.00;96963.59;5067517;28;20043;-59
2021/12/02 04:52:53;;;;;;;1.90;1.30;;;;;;;7.19;100.00;96965.47;5064261;28;20052;-59
2021/12/02 04:55:19;;;;;;;1.70;1.17;;;;;;;7.26;100.00;96955.88;5069455;28;20036;-59
2021/12/02 04:57:45;;;;;;;3.57;1.47;;;;;;;7.20;100.00;96959.50;5070045;28;20132;-60
2021/12/02 05:00:11;;;;;;;1.10;1.03;;;;;;;7.13;100.00;96954.66;5065940;28;20033;-57
2021/12/02 05:02:39;;;;;;;1.20;1.10;;;;;;;7.12;100.00;96961.44;5064906;28;20432;-59
2021/12/02 05:05:06;;;;;;;1.27;1.13;;;;;;;7.15;100.00;96963.91;5070146;28;20398;-58
2021/12/02 05:07:31;;;;;;;1.10;1.00;;;;;;;7.05;100.00;96954.88;5068745;28;20068;-58
2021/12/02 05:09:57;;;;;;;2.37;1.10;;;;;;;7.09;100.00;96958.97;5066280;28;20072;-59
2021/12/02 05:12:22;;;;;;;2.13;1.60;;;;;;;7.06;100.00;96961.63;5065242;28;20044;-56
2021/12/02 05:14:48;;;;;;;2.23;1.57;;;;;;;7.02;100.00;96949.03;5068293;28;20031;-59
2021/12/02 05:17:13;;;;;;;2.30;1.27;;;;;;;6.97;100.00;96958.53;5068070;28;20392;-58
2021/12/02 05:19:38;;;;;;;1.77;1.23;;;;;;;6.91;100.00;96956.19;5066558;28;20048;-60
2021/12/02 05:22:04;;;;;;;5.07;1.97;;;;;;;6.89;100.00;96954.53;5066908;28;20043;-58
2021/12/02 05:24:29;;;;;;;25.13;11.73;;;;;;;6.84;100.00;96961.47;5070238;28;20421;-59
2021/12/02 05:26:55;;;;;;;35.80;17.43;;;;;;;6.80;100.00;96961.63;5068322;28;20036;-54
2021/12/02 05:29:20;;;;;;;111.83;45.73;;;;;;;6.78;100.00;96966.78;5064333;28;20109;-56
2021/12/02 05:31:46;;;;;;;73.80;31.93;;;;;;;6.78;100.00;96961.69;5065478;28;20049;-57
2021/12/02 05:34:11;;;;;;;41.83;17.77;;;;;;;6.75;100.00;96959.22;5064033;28;20067;-59
2021/12/02 05:36:36;;;;;;;21.40;9.90;;;;;;;6.72;100.00;96955.94;5066062;28;20028;-59
2021/12/02 05:39:03;;;;;;;15.50;8.10;;;;;;;6.68;100.00;96956.91;5064502;28;20089;-59
2021/12/02 05:41:29;;;;;;;12.53;6.87;;;;;;;6.65;100.00;96949.38;5071577;28;20512;-58
2021/12/02 05:43:54;;;;;;;19.33;7.13;;;;;;;6.59;100.00;96942.75;5073298;28;20029;-58
2021/12/02 05:46:20;;;;;;;8.13;4.27;;;;;;;6.52;100.00;96943.81;5074489;28;20038;-58
2021/12/02 05:48:45;;;;;;;19.30;5.90;;;;;;;6.55;100.00;96940.31;5071367;28;20139;-58
2021/12/02 05:51:11;;;;;;;11.17;4.20;;;;;;;6.63;100.00;96951.94;5075647;28;20537;-57
2021/12/02 05:53:36;;;;;;;6.93;2.60;;;;;;;6.61;100.00;96948.63;5074812;28;20044;-58
2021/12/02 05:56:01;;;;;;;12.57;4.27;;;;;;;6.53;100.00;96947.19;5074745;28;20046;-59
2021/12/02 05:58:27;;;;;;;8.10;3.37;;;;;;;6.50;100.00;96949.81;5071607;28;20040;-58
2021/12/02 06:00:53;;;;;;;7.43;4.77;;;;;;;6.48;100.00;96952.41;5075507;28;20083;-58
2021/12/02 06:03:19;;;;;;;10.60;6.37;;;;;;;6.46;100.00;96948.25;5074755;28;20079;-59
2021/12/02 06:05:46;;;;;;;11.67;6.73;;;;;;;6.36;100.00;96948.53;5072221;28;20468;-59
2021/12/02 06:08:12;;;;;;;5.40;3.00;;;;;;;6.45;100.00;96960.13;5071749;28;20448;-57
2021/12/02 06:10:37;;;;;;;5.27;2.40;;;;;;;6.55;100.00;96948.81;5074169;28;20032;-62
2021/12/02 06:13:03;;;;;;;6.00;2.60;;;;;;;6.59;100.00;96954.63;5076295;28;20525;-60
2021/12/02 06:15:28;;;;;;;7.50;2.00;;;;;;;6.56;100.00;96958.13;5073156;28;20036;-60
2021/12/02 06:17:53;;;;;;;3.60;1.73;;;;;;;6.64;100.00;96952.78;5070924;28;20048;-60
2021/12/02 06:20:19;;;;;;;5.07;2.03;;;;;;;6.60;100.00;96953.75;5075158;28;20043;-61
2021/12/02 06:22:46;;;;;;;4.47;2.00;;;;;;;6.56;100.00;96955.56;5073039;28;20052;-61
2021/12/02 06:27:53;;;;;;;5.23;2.60;;;;;;;6.49;100.00;96950.72;5070339;28;20047;-62
2021/12/02 06:30:20;;;;;;;2.80;1.77;;;;;;;6.39;100.00;96953.53;5074831;28;20059;-61
2021/12/02 06:32:46;;;;;;;3.13;1.93;;;;;;;6.31;100.00;96949.53;5073033;28;20124;-61
2021/12/02 06:35:11;;;;;;;3.37;2.30;;;;;;;6.29;100.00;96956.38;5072822;28;20127;-61
2021/12/02 06:37:38;;;;;;;3.53;3.17;;;;;;;6.28;100.00;96960.63;5072469;28;20444;-61
2021/12/02 06:40:05;;;;;;;5.10;2.27;;;;;;;6.20;100.00;96962.56;5076297;28;20040;-60
2021/12/02 06:42:30;;;;;;;4.77;3.77;;;;;;;6.20;100.00;96971.91;5074953;28;20052;-60
2021/12/02 06:44:57;;;;;;;5.33;2.83;;;;;;;6.15;100.00;96974.59;5072968;28;20036;-60
2021/12/02 06:47:28;;;;;;;5.80;3.27;;;;;;;6.14;100.00;96974.63;5072115;28;20052;-60
2021/12/02 06:49:53;;;;;;;5.50;3.73;;;;;;;6.10;100.00;96983.22;5075135;28;20040;-60
2021/12/02 06:52:19;;;;;;;5.40;3.97;;;;;;;6.08;100.00;96988.34;5072194;28;20104;-60
2021/12/02 06:54:44;;;;;;;7.47;5.27;;;;;;;6.07;100.00;97001.13;5066464;28;20336;-59
2021/12/02 06:57:10;;;;;;;9.03;5.67;;;;;;;6.23;100.00;97003.19;5067962;28;20049;-61
2021/12/02 06:59:35;;;;;;;8.37;4.60;;;;;;;6.22;100.00;97006.63;5069585;28;20496;-60
2021/12/02 07:02:01;;;;;;;15.03;6.67;;;;;;;6.21;100.00;97004.94;5067446;28;20055;-59
2021/12/02 07:04:26;;;;;;;6.53;4.37;;;;;;;6.20;100.00;97010.91;5033540;28;20061;-59
2021/12/02 07:06:51;;;;;;;8.20;5.70;;;;;;;6.18;100.00;97010.13;5050611;28;20033;-60
2021/12/02 07:09:17;;;;;;;7.53;3.93;;;;;;;6.19;100.00;97010.97;5050552;28;20040;-59
2021/12/02 07:11:43;;;;;;;8.60;4.23;;;;;;;6.20;100.00;97015.97;5050246;28;20036;-60
2021/12/02 07:14:13;;;;;;;6.63;4.40;;;;;;;6.23;100.00;97020.19;5048904;28;20549;-61
2021/12/02 07:16:39;;;;;;;10.83;4.40;;;;;;;6.24;100.00;97016.72;5049587;28;20044;-62
2021/12/02 07:19:07;;;;;;;5.63;4.33;;;;;;;6.30;100.00;97022.50;5051191;28;20037;-61
2021/12/02 07:21:38;;;;;;;6.70;3.87;;;;;;;6.28;100.00;97025.97;5047524;28;20402;-61
2021/12/02 07:24:04;;;;;;;6.30;3.40;;;;;;;6.30;100.00;97025.03;5046441;28;20049;-63
2021/12/02 07:26:35;;;;;;;5.37;3.43;;;;;;;6.35;100.00;97023.22;5051597;28;20036;-61
2021/12/02 07:29:01;;;;;;;4.37;3.67;;;;;;;6.29;100.00;97018.28;5050218;28;20095;-62
2021/12/02 07:31:30;;;;;;;5.87;3.57;;;;;;;6.32;100.00;97020.72;5047710;28;20479;-62
2021/12/02 07:33:57;;;;;;;9.73;4.60;;;;;;;6.32;100.00;97030.09;5045749;28;20128;-62
2021/12/02 07:36:23;;;;;;;9.47;5.17;;;;;;;6.33;100.00;97030.03;5051665;28;20021;-59
2021/12/02 07:38:49;;;;;;;7.23;4.27;;;;;;;6.40;100.00;97033.25;5049701;28;20043;-57
2021/12/02 07:41:14;;;;;;;9.33;4.33;;;;;;;6.43;100.00;97036.56;5046860;28;20085;-60
2021/12/02 07:43:40;;;;;;;14.40;6.40;;;;;;;6.52;100.00;97038.00;5046484;28;20482;-61
2021/12/02 07:46:06;;;;;;;12.50;7.20;;;;;;;6.55;100.00;97037.91;5051875;28;20090;-60
2021/12/02 07:48:32;;;;;;;11.87;5.70;;;;;;;6.59;100.00;97036.09;5046557;28;20033;-60
2021/12/02 07:51:01;;;;;;;11.90;5.83;;;;;;;6.65;100.00;97039.31;5047112;28;20037;-59
2021/12/02 07:53:28;;;;;;;18.57;9.47;;;;;;;6.67;100.00;97045.19;5045453;28;20395;-58
2021/12/02 07:55:55;;;;;;;16.37;8.40;;;;;;;6.76;100.00;97044.91;5051132;28;20049;-58
2021/12/02 07:58:23;;;;;;;7.57;4.60;;;;;;;6.84;100.00;97039.59;5048159;28;20032;-57
2021/12/02 08:00:49;;;;;;;8.53;4.77;;;;;;;6.90;100.00;97041.97;5047132;28;20037;-60
2021/12/02 08:03:16;;;;;;;11.20;5.77;;;;;;;6.93;100.00;97048.69;5051017;28;20454;-59
2021/12/02 08:05:41;;;;;;;17.53;7.90;;;;;;;7.01;100.00;97047.56;5071255;28;20037;-57
2021/12/02 08:08:07;;;;;;;12.97;5.77;;;;;;;7.01;100.00;97052.66;5068589;28;20440;-56
2021/12/02 08:10:33;;;;;;;9.27;4.63;;;;;;;7.05;100.00;97061.88;5065309;28;20558;-57
2021/12/02 08:13:01;;;;;;;10.37;3.40;;;;;;;7.19;100.00;97062.31;5067336;28;20131;-56
2021/12/02 08:15:28;;;;;;;10.53;4.87;;;;;;;7.15;100.00;97068.38;5070114;28;20043;-56
2021/12/02 08:17:55;;;;;;;15.43;6.03;;;;;;;7.13;100.00;97054.84;5067060;28;20055;-55
2021/12/02 08:20:22;;;;;;;12.70;6.20;;;;;;;7.18;100.00;97067.44;5066666;28;20037;-55
2021/12/02 08:22:48;;;;;;;12.67;5.07;;;;;;;7.13;100.00;97064.22;5067192;28;20064;-55
2021/12/02 08:25:14;;;;;;;9.70;5.03;;;;;;;7.23;100.00;97061.31;5070159;28;20045;-58
2021/12/02 08:27:41;;;;;;;13.67;5.13;;;;;;;7.30;100.00;97067.88;5067142;28;20044;-57
2021/12/02 08:30:09;;;;;;;7.50;4.70;;;;;;;7.40;100.00;97068.44;5065677;28;20257;-56
2021/12/02 08:32:37;;;;;;;5.50;4.53;;;;;;;7.46;100.00;97064.88;5068726;28;20059;-54
2021/12/02 08:35:03;;;;;;;10.57;5.13;;;;;;;7.53;100.00;97062.06;5069556;28;20040;-56
2021/12/02 08:37:31;;;;;;;9.30;5.73;;;;;;;7.63;100.00;97073.66;5066088;28;20047;-54
2021/12/02 08:39:59;;;;;;;9.53;5.03;;;;;;;7.66;100.00;97065.91;5064959;28;20086;-55
2021/12/02 08:42:26;;;;;;;11.13;5.90;;;;;;;7.70;100.00;97057.25;5069938;28;20493;-54
2021/12/02 08:44:53;;;;;;;12.07;5.87;;;;;;;7.74;100.00;97063.09;5043839;28;20090;-57
2021/12/02 08:47:22;;;;;;;6.30;4.77;;;;;;;7.81;100.00;97052.63;5066308;28;20036;-58
2021/12/02 08:49:47;;;;;;;2.27;2.07;;;;;;;7.79;100.00;97046.75;5065188;28;20564;-55
2021/12/02 08:52:13;;;;;;;2.60;1.80;;;;;;;7.88;100.00;97053.28;5069418;28;20040;-56
2021/12/02 08:54:38;;;;;;;6.53;3.00;;;;;;;8.02;100.00;97056.16;5068801;28;20040;-57
2021/12/02 08:57:03;;;;;;;9.00;5.33;;;;;;;8.06;100.00;97047.53;5065764;28;20528;-57
2021/12/02 08:59:30;;;;;;;4.53;2.00;;;;;;;8.11;100.00;97045.66;5065223;28;20075;-58
2021/12/02 09:01:55;;;;;;;4.63;2.00;;;;;;;8.25;100.00;97051.13;5070246;28;20052;-57
2021/12/02 09:04:20;;;;;;;2.77;1.50;;;;;;;8.33;100.00;97055.97;5068147;28;20173;-59
2021/12/02 09:06:46;;;;;;;5.20;2.63;;;;;;;8.46;100.00;97047.00;5064279;28;20040;-55
2021/12/02 09:09:11;;;;;;;5.17;3.10;;;;;;;8.53;100.00;97057.84;5066766;28;20481;-57
2021/12/02 09:11:37;;;;;;;4.20;2.70;;;;;;;8.57;99.86;97051.72;5068811;28;20572;-57
2021/12/02 09:14:05;;;;;;;4.30;2.27;;;;;;;8.68;97.37;97049.59;5069477;28;20045;-59
2021/12/02 09:16:31;;;;;;;5.87;2.60;;;;;;;8.69;96.29;97043.63;5064696;28;20036;-58
2021/12/02 09:18:57;;;;;;;3.50;2.67;;;;;;;8.71;97.29;97046.94;5065124;28;20144;-57
2021/12/02 09:21:24;;;;;;;11.07;4.00;;;;;;;8.80;98.91;97050.88;5065875;28;20036;-57
2021/12/02 09:23:49;;;;;;;6.50;4.17;;;;;;;8.76;100.00;97041.66;5066341;28;20170;-57
2021/12/02 09:26:15;;;;;;;3.23;2.73;;;;;;;8.84;99.38;97045.59;5066064;28;20668;-59
2021/12/02 09:28:41;;;;;;;2.70;1.83;;;;;;;8.81;98.82;97050.81;5066266;28;20424;-59
2021/12/02 09:31:07;;;;;;;2.23;1.67;;;;;;;8.87;98.08;97047.22;5069448;28;20043;-57
2021/12/02 09:33:32;;;;;;;2.13;1.27;;;;;;;8.94;98.99;97049.47;5067149;28;20207;-58
2021/12/02 09:35:58;;;;;;;2.77;1.63;;;;;;;8.98;96.90;97048.47;5063379;28;20045;-58
2021/12/02 09:38:23;;;;;;;2.90;1.43;;;;;;;9.08;95.67;97046.41;5065183;28;20098;-59
2021/12/02 09:40:49;;;;;;;2.07;1.60;;;;;;;9.15;94.61;97046.09;5066372;28;20534;-57
2021/12/02 09:43:15;;;;;;;8.00;1.97;;;;;;;9.17;96.70;97044.28;5064728;28;20789;-54
2021/12/02 09:45:41;;;;;;;2.77;1.80;;;;;;;9.23;97.92;97045.78;5062321;28;20048;-55
2021/12/02 09:48:09;;;;;;;3.33;1.80;;;;;;;9.28;98.65;97046.44;5064547;28;20049;-55
2021/12/02 09:50:38;;;;;;;3.78;1.83;;;;;;;9.27;100.00;97042.22;5066773;28;20044;-55
2021/12/02 09:53:10;;;;;;;1.90;1.70;;;;;;;9.25;97.13;97046.53;5056949;28;20056;-54
2021/12/02 09:58:25;;;;;;;1.40;1.30;;;;;;;9.21;96.32;97033.97;5067134;28;20448;-61
2021/12/02 10:00:59;;;;;;;2.70;1.57;;;;;;;9.26;96.90;97043.09;5065494;28;20129;-52
2021/12/02 10:06:03;;;;;;;2.15;1.75;;;;;;;9.39;95.53;97033.22;5065015;28;20492;-59
2021/12/02 10:08:34;;;;;;;4.72;2.92;;;;;;;9.41;98.81;97039.97;5065161;28;20379;-54
2021/12/02 10:11:03;;;;;;;4.80;3.35;;;;;;;9.41;98.10;97037.41;5062979;28;20440;-56
2021/12/02 10:13:44;;;;;;;5.55;2.88;;;;;;;9.51;99.08;97042.97;5061021;28;20805;-58
2021/12/02 10:16:28;;;;;;;5.30;3.67;;;;;;;9.38;100.00;97039.22;5063333;28;20128;-55
2021/12/02 10:21:40;;;;;;;4.97;4.10;;;;;;;9.33;100.00;97041.16;5063681;28;20040;-58
2021/12/02 10:24:13;;;;;;;6.77;4.17;;;;;;;9.27;100.00;97051.63;5062961;28;20032;-57
2021/12/02 10:26:49;;;;;;;6.97;3.90;;;;;;;9.01;100.00;97052.63;5062983;28;20207;-58
2021/12/02 10:29:23;;;;;;;9.00;3.78;;;;;;;8.83;100.00;97059.25;5067559;28;20051;-56
2021/12/02 10:32:12;;;;;;;6.90;4.87;;;;;;;8.74;100.00;97044.28;5064970;28;20118;-58
2021/12/02 10:34:55;;;;;;;6.83;3.77;;;;;;;8.75;100.00;97048.47;5068406;28;20044;-57
2021/12/02 10:37:25;;;;;;;5.27;4.70;;;;;;;8.68;100.00;97047.06;5071276;28;20043;-57
2021/12/02 10:39:57;;;;;;;10.03;4.83;;;;;;;8.63;100.00;97052.31;5068663;28;20044;-56
2021/12/02 10:42:24;;;;;;;10.00;5.23;;;;;;;8.62;100.00;97050.66;5066368;28;20036;-58
2021/12/02 10:44:49;;;;;;;6.50;5.10;;;;;;;8.28;100.00;97057.81;5070558;28;20028;-53
2021/12/02 10:47:16;;;;;;;6.90;4.80;;;;;;;8.34;100.00;97055.09;5071246;28;20040;-59
2021/12/02 10:49:50;;;;;;;7.27;4.40;;;;;;;8.28;100.00;97050.16;5068561;28;20094;-58
2021/12/02 10:52:21;;;;;;;8.63;4.72;;;;;;;8.18;100.00;97064.16;5066240;28;20414;-59
2021/12/02 10:54:51;;;;;;;9.03;5.67;;;;;;;8.50;100.00;97063.03;5071718;28;20043;-59
2021/12/02 10:57:22;;;;;;;3.47;2.37;;;;;;;8.28;100.00;97063.75;5071517;28;20063;-60
2021/12/02 11:00:04;;;;;;;0.97;0.90;;;;;;;8.25;100.00;97052.84;5068680;28;20123;-60
2021/12/02 11:02:31;;;;;;;3.03;0.60;;;;;;;8.03;100.00;97045.09;5064570;28;20040;-59
2021/12/02 11:05:05;;;;;;;2.33;0.90;;;;;;;8.20;100.00;97047.88;5070617;28;20071;-60
2021/12/02 11:07:41;;;;;;;0.87;0.60;;;;;;;8.06;100.00;97046.72;5067481;28;20515;-60
2021/12/02 11:10:12;;;;;;;1.53;1.13;;;;;;;8.00;100.00;97054.56;5064203;28;20044;-61
2021/12/02 11:12:44;;;;;;;5.10;3.13;;;;;;;7.97;100.00;97044.47;5068340;28;20037;-59
2021/12/02 11:15:15;;;;;;;7.57;4.00;;;;;;;7.90;100.00;97055.75;5071482;28;20044;-61
2021/12/02 11:17:45;;;;;;;6.53;3.17;;;;;;;8.41;100.00;97051.44;5069451;28;20040;-60
2021/12/02 11:20:16;;;;;;;5.37;3.37;;;;;;;8.43;100.00;97041.16;5067154;28;20032;-59
2021/12/02 11:22:43;;;;;;;3.23;2.60;;;;;;;8.52;100.00;97049.34;5068364;28;20029;-59
2021/12/02 11:25:10;;;;;;;5.83;3.40;;;;;;;8.65;100.00;97045.47;5071524;28;20033;-61
2021/12/02 11:27:48;;;;;;;3.47;3.00;;;;;;;8.91;100.00;97047.00;5068403;28;20048;-60
2021/12/02 11:30:16;;;;;;;2.90;2.43;;;;;;;8.74;100.00;97040.91;5067532;28;20055;-59
2021/12/02 11:32:51;;;;;;;2.47;1.63;;;;;;;8.69;100.00;97043.63;5069975;28;20076;-61
2021/12/02 11:35:23;;;;;;;2.17;1.23;;;;;;;8.38;100.00;97046.44;5071103;28;20063;-60
2021/12/02 11:37:54;;;;;;;3.50;1.00;;;;;;;8.26;100.00;97047.69;5064327;28;20047;-61
2021/12/02 11:40:26;;;;;;;3.97;1.30;;;;;;;8.27;100.00;97053.63;5048083;28;20105;-57
2021/12/02 11:42:53;;;;;;;0.70;0.70;;;;;;;8.24;100.00;97049.44;5068902;28;20048;-59
2021/12/02 11:45:23;;;;;;;0.97;0.80;;;;;;;8.17;100.00;97035.25;5070408;28;20402;-60
2021/12/02 11:47:51;;;;;;;1.00;0.90;;;;;;;8.12;100.00;97044.78;5066935;28;20689;-60
2021/12/02 11:50:18;;;;;;;1.60;0.90;;;;;;;8.22;100.00;97047.84;5065976;28;20052;-60
2021/12/02 11:52:44;;;;;;;1.70;0.73;;;;;;;8.18;100.00;97042.03;5068408;28;20095;-61
2021/12/02 11:55:15;;;;;;;0.90;0.90;;;;;;;8.27;100.00;97044.22;5068755;28;20032;-60
2021/12/02 11:57:41;;;;;;;3.37;1.97;;;;;;;8.27;100.00;97049.31;5067512;28;20034;-58
2021/12/02 12:00:11;;;;;;;3.83;3.00;;;;;;;8.35;100.00;97041.44;5065412;28;20032;-60
2021/12/02 12:02:39;;;;;;;6.70;4.20;;;;;;;8.30;100.00;97030.56;5065425;28;20599;-57